Time;durP1;ratioP1;P1;durP2;ratioP2;P2;SDS_P1;SDS_P2;PMS_P1;PMS_P2;Temp;Humidity;BMP_temperature;BMP_pressure;BME280_temperature;BME280_humidity;BME280_pressure;Samples;Min_cycle;Max_cycle;Signal;HPM_P1;HPM_P2
2022/01/08 00:01:24;;;;;;;4.70;2.10;;;;;;;-13.92;88.03;100505.88;5062443;28;20037;-73
2022/01/08 00:03:51;;;;;;;2.25;1.55;;;;;;;-13.88;87.91;100486.22;5055708;28;20079;-72
2022/01/08 00:06:17;;;;;;;2.95;1.98;;;;;;;-13.85;88.00;100491.25;5050514;28;20454;-73
2022/01/08 00:08:43;;;;;;;3.95;1.90;;;;;;;-13.81;87.62;100499.72;5051592;28;20052;-73
2022/01/08 00:11:10;;;;;;;4.32;2.15;;;;;;;-13.80;87.50;100501.41;5050340;28;20178;-74
2022/01/08 00:13:37;;;;;;;2.88;1.65;;;;;;;-13.77;87.56;100498.50;5055291;28;20133;-73
2022/01/08 00:16:03;;;;;;;4.25;2.00;;;;;;;-13.69;87.63;100500.50;5049303;28;20641;-73
2022/01/08 00:18:29;;;;;;;3.50;1.90;;;;;;;-13.67;87.88;100493.31;5051625;28;20471;-73
2022/01/08 00:20:54;;;;;;;5.25;2.22;;;;;;;-13.65;88.25;100499.28;5068178;28;20128;-73
2022/01/08 00:23:20;;;;;;;4.07;1.95;;;;;;;-13.65;88.49;100497.47;5060074;28;20127;-73
2022/01/08 00:25:46;;;;;;;2.67;1.90;;;;;;;-13.64;87.91;100498.31;5036976;28;20047;-73
2022/01/08 00:28:11;;;;;;;3.85;1.90;;;;;;;-13.61;87.98;100505.97;5068039;28;20041;-73
2022/01/08 00:30:37;;;;;;;3.83;2.40;;;;;;;-13.59;88.15;100499.59;5052633;28;20029;-73
2022/01/08 00:33:02;;;;;;;3.60;2.00;;;;;;;-13.56;88.39;100504.59;5058971;28;20048;-73
2022/01/08 00:35:28;;;;;;;3.30;1.77;;;;;;;-13.52;88.51;100502.56;5065483;28;20048;-72
2022/01/08 00:37:54;;;;;;;4.00;1.92;;;;;;;-13.50;87.87;100505.91;5059133;28;20041;-73
2022/01/08 00:40:19;;;;;;;5.10;2.03;;;;;;;-13.44;88.25;100502.72;5052582;28;20048;-73
2022/01/08 00:42:45;;;;;;;3.92;2.08;;;;;;;-13.40;88.26;100501.50;5039231;28;20040;-73
2022/01/08 00:45:11;;;;;;;2.53;1.73;;;;;;;-13.40;88.14;100512.06;5058580;28;20406;-73
2022/01/08 00:47:36;;;;;;;3.28;2.13;;;;;;;-13.37;88.36;100517.06;5064514;28;20103;-73
2022/01/08 00:50:04;;;;;;;3.47;1.98;;;;;;;-13.34;87.82;100521.28;5069271;28;20037;-73
2022/01/08 00:52:30;;;;;;;3.30;2.13;;;;;;;-13.29;88.59;100526.97;5065697;28;20051;-73
2022/01/08 00:54:55;;;;;;;3.10;1.77;;;;;;;-13.29;88.43;100530.47;5059395;28;20036;-74
2022/01/08 00:57:21;;;;;;;4.03;1.95;;;;;;;-13.27;88.25;100528.53;5039106;28;20044;-73
2022/01/08 00:59:46;;;;;;;3.38;1.92;;;;;;;-13.25;88.34;100526.59;5055805;28;20036;-74
2022/01/08 01:02:12;;;;;;;2.33;1.73;;;;;;;-13.23;87.96;100539.66;5052745;28;20039;-73
2022/01/08 01:04:38;;;;;;;3.75;1.70;;;;;;;-13.24;88.26;100533.53;5066439;28;20044;-73
2022/01/08 01:07:03;;;;;;;3.45;1.88;;;;;;;-13.23;88.21;100537.84;5073082;28;20509;-73
2022/01/08 01:09:29;;;;;;;3.65;2.03;;;;;;;-13.19;88.31;100536.63;5067553;28;20406;-72
2022/01/08 01:11:57;;;;;;;4.63;2.40;;;;;;;-13.17;87.88;100528.56;5057506;28;20047;-72
2022/01/08 01:14:26;;;;;;;5.97;2.10;;;;;;;-13.15;87.87;100539.81;5055206;28;20071;-72
2022/01/08 01:16:52;;;;;;;4.00;1.92;;;;;;;-13.11;88.18;100542.03;5061513;28;20037;-72
2022/01/08 01:19:18;;;;;;;4.03;2.17;;;;;;;-13.11;87.81;100538.56;5057402;28;20067;-73
2022/01/08 01:21:44;;;;;;;2.90;1.92;;;;;;;-13.11;88.59;100538.56;5034822;28;20071;-73
2022/01/08 01:24:15;;;;;;;3.95;2.47;;;;;;;-13.11;88.62;100542.03;5068678;28;20045;-73
2022/01/08 01:26:54;;;;;;;2.20;1.65;;;;;;;-13.07;88.12;100537.34;5050819;28;20044;-72
2022/01/08 01:29:35;;;;;;;15.13;6.32;;;;;;;-13.04;88.20;100541.50;5068714;28;20087;-73
2022/01/08 01:48:26;;;;;;;3.33;2.17;;;;;;;-12.96;88.12;100565.47;5068232;28;20071;-73
2022/01/08 01:50:51;;;;;;;3.38;2.17;;;;;;;-12.98;88.52;100564.78;5052929;28;20037;-74
2022/01/08 01:53:17;;;;;;;3.30;2.03;;;;;;;-12.98;88.54;100567.41;5058562;28;20427;-73
2022/01/08 01:55:43;;;;;;;5.15;2.20;;;;;;;-13.01;88.30;100580.88;5034571;28;20040;-73
2022/01/08 01:58:11;;;;;;;4.82;2.42;;;;;;;-13.01;88.19;100583.53;5052668;28;20040;-72
2022/01/08 02:00:37;;;;;;;4.55;2.45;;;;;;;-13.02;87.94;100584.47;5067450;28;20037;-72
2022/01/08 02:03:03;;;;;;;5.57;2.40;;;;;;;-13.02;88.09;100587.94;5067149;28;20049;-73
2022/01/08 02:05:28;;;;;;;3.38;2.20;;;;;;;-13.03;87.93;100583.63;5037803;28;20093;-73
2022/01/08 02:07:57;;;;;;;3.67;2.30;;;;;;;-13.02;88.54;100592.38;5064896;28;20028;-73
2022/01/08 02:10:23;;;;;;;3.90;2.50;;;;;;;-13.02;88.24;100589.75;5037240;28;20041;-73
2022/01/08 02:12:49;;;;;;;4.35;2.28;;;;;;;-13.04;87.68;100596.97;5061381;28;20135;-73
2022/01/08 02:15:14;;;;;;;4.45;2.58;;;;;;;-13.04;87.87;100596.97;5063937;28;20156;-73
2022/01/08 02:17:40;;;;;;;5.78;2.47;;;;;;;-13.05;88.04;100608.50;5043658;28;20393;-72
2022/01/08 02:20:07;;;;;;;5.05;2.40;;;;;;;-13.09;88.07;100607.94;5052212;28;20044;-72
2022/01/08 02:22:32;;;;;;;3.78;2.55;;;;;;;-13.09;88.05;100611.41;5054816;28;20139;-72
2022/01/08 02:24:58;;;;;;;4.68;2.70;;;;;;;-13.11;87.63;100612.50;5047866;28;20120;-72
2022/01/08 02:27:24;;;;;;;4.00;2.30;;;;;;;-13.14;88.19;100613.59;5053848;28;20076;-73
2022/01/08 02:29:50;;;;;;;6.03;2.47;;;;;;;-13.16;87.78;100612.91;5038981;28;20036;-73
2022/01/08 02:32:19;;;;;;;5.55;2.42;;;;;;;-13.16;88.30;100626.09;5062591;28;20075;-72
2022/01/08 02:34:47;;;;;;;3.47;2.45;;;;;;;-13.18;87.96;100628.06;5056212;28;20040;-73
2022/01/08 02:37:17;;;;;;;6.05;2.42;;;;;;;-13.20;87.81;100629.97;5040991;28;20029;-72
2022/01/08 02:39:44;;;;;;;4.65;2.25;;;;;;;-13.22;87.81;100637.19;5044891;28;20044;-73
2022/01/08 02:42:16;;;;;;;5.80;2.60;;;;;;;-13.22;88.38;100636.34;5059129;28;20503;-73
2022/01/08 02:44:42;;;;;;;6.22;2.92;;;;;;;-13.25;88.09;100642.72;5051979;28;20028;-73
2022/01/08 02:47:08;;;;;;;6.50;2.75;;;;;;;-13.21;88.31;100645.94;5050355;28;20082;-73
2022/01/08 02:49:35;;;;;;;3.83;2.10;;;;;;;-13.17;87.78;100652.63;5041245;28;20131;-73
2022/01/08 02:52:02;;;;;;;4.97;1.98;;;;;;;-13.17;87.97;100647.34;5044217;28;20056;-73
2022/01/08 02:54:27;;;;;;;5.45;2.58;;;;;;;-13.18;88.18;100646.56;5052958;28;20048;-72
2022/01/08 02:56:53;;;;;;;5.22;2.55;;;;;;;-13.17;87.40;100661.41;5050394;28;20040;-72
2022/01/08 02:59:18;;;;;;;5.18;2.40;;;;;;;-13.19;87.78;100663.38;5067043;28;20037;-73
2022/01/08 03:01:45;;;;;;;4.78;2.47;;;;;;;-13.21;88.47;100667.91;5051969;28;20041;-72
2022/01/08 03:04:11;;;;;;;4.82;2.35;;;;;;;-13.19;87.96;100663.38;5051257;28;20041;-73
2022/01/08 03:06:37;;;;;;;5.10;2.58;;;;;;;-13.18;87.64;100670.31;5036004;28;20037;-73
2022/01/08 03:09:03;;;;;;;6.13;2.92;;;;;;;-13.19;88.10;100668.63;5066705;28;20099;-73
2022/01/08 03:11:29;;;;;;;3.50;2.45;;;;;;;-13.23;87.77;100676.91;5048097;28;20051;-72
2022/01/08 03:13:54;;;;;;;3.13;2.45;;;;;;;-13.29;87.79;100677.44;5019951;28;20037;-72
2022/01/08 03:16:20;;;;;;;2.88;2.20;;;;;;;-13.32;88.07;100675.91;5067229;28;20450;-73
2022/01/08 03:18:48;;;;;;;3.45;2.30;;;;;;;-13.33;88.18;100679.50;5049255;28;20044;-73
2022/01/08 03:21:16;;;;;;;4.72;2.83;;;;;;;-13.29;87.96;100680.91;5051430;28;20064;-72
2022/01/08 03:23:49;;;;;;;5.93;2.70;;;;;;;-13.27;87.74;100686.06;5037365;28;20060;-73
2022/01/08 03:26:18;;;;;;;5.88;2.60;;;;;;;-13.31;87.87;100685.50;5055223;28;20051;-73
2022/01/08 03:28:44;;;;;;;4.72;2.60;;;;;;;-13.34;87.68;100688.38;5049760;28;20073;-73
2022/01/08 03:31:11;;;;;;;4.07;2.30;;;;;;;-13.30;88.26;100699.53;5065843;28;20063;-72
2022/01/08 03:33:37;;;;;;;4.38;2.42;;;;;;;-13.27;88.56;100694.81;5055722;28;20526;-72
2022/01/08 03:36:03;;;;;;;4.10;2.38;;;;;;;-13.27;87.95;100702.75;5054475;28;20065;-72
2022/01/08 03:38:30;;;;;;;4.85;2.28;;;;;;;-13.28;87.83;100698.44;5050034;28;20055;-72
2022/01/08 03:40:56;;;;;;;3.78;2.15;;;;;;;-13.25;88.02;100698.16;5056455;28;20071;-72
2022/01/08 03:43:21;;;;;;;8.50;4.43;;;;;;;-13.22;88.03;100700.53;5056001;28;20097;-71
2022/01/08 03:45:47;;;;;;;4.53;2.97;;;;;;;-13.22;87.87;100705.81;5066125;28;20045;-74
2022/01/08 03:50:47;;;;;;;3.90;2.42;;;;;;;-13.11;88.08;100715.47;5050564;28;20037;-73
2022/01/08 03:53:13;;;;;;;4.57;2.75;;;;;;;-13.05;88.64;100711.47;5037832;28;20415;-73
2022/01/08 03:55:39;;;;;;;7.70;2.65;;;;;;;-13.00;88.33;100719.88;5066676;28;20051;-73
2022/01/08 03:58:05;;;;;;;5.10;2.20;;;;;;;-12.95;87.86;100722.97;5055317;28;20044;-73
2022/01/08 04:00:31;;;;;;;4.80;2.90;;;;;;;-12.87;87.60;100726.63;5053953;28;20044;-73
2022/01/08 04:02:56;;;;;;;3.15;2.60;;;;;;;-12.82;88.03;100719.19;5050544;28;20036;-73
2022/01/08 04:05:22;;;;;;;4.13;2.50;;;;;;;-12.76;88.03;100723.09;5056879;28;20183;-73
2022/01/08 04:07:47;;;;;;;5.10;2.03;;;;;;;-12.68;88.74;100736.47;5060253;28;20045;-74
2022/01/08 04:10:13;;;;;;;5.05;2.55;;;;;;;-12.66;88.12;100731.94;5019560;28;20102;-73
2022/01/08 04:12:46;;;;;;;3.90;2.15;;;;;;;-12.62;88.49;100735.97;5059191;28;20033;-73
2022/01/08 04:17:52;;;;;;;4.20;2.55;;;;;;;-12.49;88.22;100735.78;5054712;28;20064;-73
2022/01/08 04:20:19;;;;;;;3.72;2.33;;;;;;;-12.41;88.71;100727.19;5029832;28;20049;-72
2022/01/08 04:22:47;;;;;;;6.43;2.38;;;;;;;-12.37;88.97;100734.72;5065217;28;20191;-72
2022/01/08 04:25:14;;;;;;;5.00;2.70;;;;;;;-12.30;88.62;100733.25;5065196;28;20037;-72
2022/01/08 04:27:39;;;;;;;5.93;3.05;;;;;;;-12.23;89.06;100730.91;5035340;28;20522;-73
2022/01/08 04:30:06;;;;;;;4.47;2.67;;;;;;;-12.17;89.11;100725.06;5050280;28;20037;-73
2022/01/08 04:32:32;;;;;;;5.25;2.40;;;;;;;-12.10;89.38;100725.38;5049940;28;20397;-72
2022/01/08 04:34:57;;;;;;;4.80;2.45;;;;;;;-12.06;88.87;100719.69;5038381;28;20107;-72
2022/01/08 04:37:23;;;;;;;4.82;2.97;;;;;;;-12.00;88.93;100724.44;5039898;28;20124;-71
2022/01/08 04:39:48;;;;;;;5.25;2.92;;;;;;;-11.94;89.30;100720.44;5032619;28;20045;-72
2022/01/08 04:42:14;;;;;;;4.78;2.40;;;;;;;-11.90;89.05;100716.53;5049785;28;20045;-71
2022/01/08 04:44:39;;;;;;;3.08;2.20;;;;;;;-11.88;88.88;100699.56;5065937;28;20037;-72
2022/01/08 04:47:05;;;;;;;7.22;3.38;;;;;;;-11.84;89.29;100696.63;5048832;28;20415;-72
2022/01/08 04:49:30;;;;;;;4.65;2.85;;;;;;;-11.84;88.74;100704.56;5050451;28;20102;-73
2022/01/08 04:51:56;;;;;;;4.70;2.38;;;;;;;-11.84;89.17;100699.28;5049956;28;20072;-72
2022/01/08 04:54:22;;;;;;;4.15;2.67;;;;;;;-11.83;89.07;100700.94;5034934;28;20422;-72
2022/01/08 04:56:48;;;;;;;8.27;2.78;;;;;;;-11.83;88.98;100707.06;5032340;28;20102;-72
2022/01/08 04:59:14;;;;;;;6.85;3.22;;;;;;;-11.86;88.90;100712.66;5049849;28;20048;-73
2022/01/08 05:01:39;;;;;;;4.88;2.53;;;;;;;-11.90;89.36;100717.38;5048591;28;20072;-72
2022/01/08 05:04:05;;;;;;;6.70;3.17;;;;;;;-11.91;89.36;100714.88;5049786;28;20063;-72
2022/01/08 05:06:31;;;;;;;4.45;2.83;;;;;;;-11.89;89.26;100716.41;5052534;28;20033;-72
2022/01/08 05:08:57;;;;;;;5.05;2.72;;;;;;;-11.87;89.30;100716.25;5053693;28;20040;-72
2022/01/08 05:11:22;;;;;;;5.43;2.58;;;;;;;-11.87;89.22;100726.84;5052614;28;20156;-72
2022/01/08 05:13:50;;;;;;;5.10;2.85;;;;;;;-11.84;88.97;100738.97;5053911;28;20462;-73
2022/01/08 05:16:16;;;;;;;4.47;2.97;;;;;;;-11.87;89.01;100735.63;5051761;28;20531;-72
2022/01/08 05:18:42;;;;;;;9.00;2.55;;;;;;;-11.90;88.79;100741.19;5068882;28;20036;-72
2022/01/08 05:21:19;;;;;;;5.85;3.03;;;;;;;-11.89;88.95;100742.88;5053276;28;20053;-73
2022/01/08 05:23:44;;;;;;;6.38;2.85;;;;;;;-11.87;88.94;100745.38;5051422;28;20041;-72
2022/01/08 05:26:11;;;;;;;5.38;2.90;;;;;;;-11.87;89.28;100750.66;5053608;28;20107;-73
2022/01/08 05:28:36;;;;;;;7.43;2.63;;;;;;;-11.90;88.62;100749.13;5035357;28;20029;-73
2022/01/08 05:31:02;;;;;;;4.05;3.13;;;;;;;-11.95;88.96;100751.34;5051226;28;20056;-73
2022/01/08 05:33:28;;;;;;;5.38;2.58;;;;;;;-11.98;89.71;100745.47;5053079;28;20503;-73
2022/01/08 05:35:53;;;;;;;5.00;2.65;;;;;;;-12.00;89.32;100750.06;5053357;28;20044;-73
2022/01/08 05:38:19;;;;;;;6.10;2.95;;;;;;;-12.04;88.63;100757.41;5052939;28;20577;-73
2022/01/08 05:40:45;;;;;;;5.38;2.90;;;;;;;-12.04;89.34;100761.88;5053269;28;20044;-72
2022/01/08 05:43:11;;;;;;;5.07;3.13;;;;;;;-12.02;89.18;100766.06;5034825;28;20084;-72
2022/01/08 05:45:36;;;;;;;6.93;2.70;;;;;;;-12.03;89.15;100766.19;5051861;28;20127;-72
2022/01/08 05:48:02;;;;;;;4.93;2.67;;;;;;;-12.04;89.30;100765.34;5052568;28;20044;-73
2022/01/08 05:50:28;;;;;;;6.53;3.20;;;;;;;-12.05;89.19;100771.63;5052684;28;20048;-73
2022/01/08 05:52:53;;;;;;;5.63;2.83;;;;;;;-12.04;89.56;100775.94;5067862;28;20114;-72
2022/01/08 05:55:19;;;;;;;2.88;2.08;;;;;;;-12.02;89.22;100776.63;5052808;28;20120;-73
2022/01/08 05:57:45;;;;;;;7.05;2.58;;;;;;;-12.00;88.81;100785.28;5068038;28;20072;-73
2022/01/08 06:00:12;;;;;;;4.07;2.17;;;;;;;-11.99;89.58;100796.69;5034725;28;20043;-73
2022/01/08 06:02:37;;;;;;;4.05;2.47;;;;;;;-11.94;89.13;100799.81;5040626;28;20482;-73
2022/01/08 06:05:07;;;;;;;4.13;2.40;;;;;;;-11.89;88.90;100809.00;5052185;28;20128;-73
2022/01/08 06:07:38;;;;;;;6.53;2.55;;;;;;;-11.85;89.00;100806.09;5052751;28;20045;-73
2022/01/08 06:10:09;;;;;;;4.53;2.20;;;;;;;-11.83;89.23;100815.56;5067626;28;20044;-73
2022/01/08 06:12:35;;;;;;;3.42;2.33;;;;;;;-11.79;89.65;100817.00;5034738;28;20052;-73
2022/01/08 06:15:00;;;;;;;6.53;2.60;;;;;;;-11.78;89.22;100823.13;5034432;28;20594;-73
2022/01/08 06:17:26;;;;;;;6.70;2.80;;;;;;;-11.76;89.44;100829.09;5051140;28;20048;-73
2022/01/08 06:19:52;;;;;;;5.60;2.50;;;;;;;-11.76;89.44;100818.50;5054632;28;20045;-73
2022/01/08 06:22:17;;;;;;;7.40;3.30;;;;;;;-11.74;89.54;100827.97;5066672;28;20044;-73
2022/01/08 06:24:43;;;;;;;5.05;2.85;;;;;;;-11.69;89.43;100835.50;5050662;28;20076;-73
2022/01/08 06:27:08;;;;;;;5.55;3.13;;;;;;;-11.69;89.65;100840.81;5067571;28;20037;-72
2022/01/08 06:29:34;;;;;;;7.38;3.00;;;;;;;-11.66;89.37;100840.53;5034589;28;20079;-73
2022/01/08 06:32:00;;;;;;;3.53;2.40;;;;;;;-11.68;89.42;100842.47;5058553;28;20041;-73
2022/01/08 06:34:25;;;;;;;4.18;2.80;;;;;;;-11.64;89.88;100844.72;5051232;28;20514;-72
2022/01/08 06:36:51;;;;;;;3.30;2.45;;;;;;;-11.60;89.76;100838.22;5050890;28;20037;-72
2022/01/08 06:39:17;;;;;;;5.35;2.85;;;;;;;-11.53;89.75;100837.66;5051883;28;20041;-72
2022/01/08 06:41:43;;;;;;;4.68;2.80;;;;;;;-11.49;89.75;100847.00;5052374;28;20435;-72
2022/01/08 06:44:09;;;;;;;6.57;3.38;;;;;;;-11.44;89.54;100837.72;5051225;28;20036;-73
2022/01/08 06:46:34;;;;;;;4.63;3.35;;;;;;;-11.38;89.45;100853.06;5034614;28;20124;-73
2022/01/08 06:49:00;;;;;;;6.93;3.15;;;;;;;-11.33;90.02;100853.47;5038778;28;20133;-73
2022/01/08 06:51:26;;;;;;;6.30;2.97;;;;;;;-11.27;90.24;100857.41;5033784;28;20068;-73
2022/01/08 06:53:51;;;;;;;10.38;3.38;;;;;;;-11.23;90.41;100856.16;5050727;28;20123;-72
2022/01/08 06:56:18;;;;;;;7.07;3.97;;;;;;;-11.17;90.35;100852.97;5068320;28;20544;-73
2022/01/08 06:58:44;;;;;;;5.75;3.35;;;;;;;-11.14;89.77;100846.56;5051820;28;20044;-73
2022/01/08 07:01:10;;;;;;;6.20;3.53;;;;;;;-11.10;90.59;100854.13;5050202;28;20067;-73
2022/01/08 07:03:35;;;;;;;5.10;3.30;;;;;;;-11.04;89.81;100842.13;5051702;28;20411;-73
2022/01/08 07:06:01;;;;;;;7.38;3.17;;;;;;;-11.02;90.10;100840.16;5050784;28;20068;-73
2022/01/08 07:08:26;;;;;;;8.18;3.53;;;;;;;-10.96;89.75;100837.78;5044712;28;20052;-72
2022/01/08 07:10:52;;;;;;;8.77;3.85;;;;;;;-10.90;90.76;100839.06;5048447;28;20086;-73
2022/01/08 07:13:18;;;;;;;7.00;3.53;;;;;;;-10.83;90.35;100836.69;5043511;28;20048;-73
2022/01/08 07:15:43;;;;;;;5.07;3.35;;;;;;;-10.78;90.34;100839.75;5051063;28;20482;-73
2022/01/08 07:18:09;;;;;;;6.72;3.08;;;;;;;-10.72;89.85;100852.47;5051311;28;20080;-73
2022/01/08 07:20:34;;;;;;;5.00;3.42;;;;;;;-10.68;90.08;100852.06;5050908;28;20466;-73
2022/01/08 07:23:01;;;;;;;5.35;3.60;;;;;;;-10.60;89.88;100858.47;5050603;28;20037;-72
2022/01/08 07:25:26;;;;;;;7.70;3.55;;;;;;;-10.53;90.16;100856.94;5050242;28;20040;-72
2022/01/08 07:27:52;;;;;;;5.90;3.65;;;;;;;-10.48;90.55;100863.50;5039146;28;20037;-72
2022/01/08 07:30:18;;;;;;;8.18;3.45;;;;;;;-10.45;90.44;100865.03;5033317;28;20041;-72
2022/01/08 07:32:49;;;;;;;5.03;2.92;;;;;;;-10.38;90.65;100871.47;5051377;28;20411;-73
2022/01/08 07:35:18;;;;;;;7.78;3.42;;;;;;;-10.35;90.69;100876.47;5052014;28;20102;-73
2022/01/08 07:37:45;;;;;;;4.97;3.05;;;;;;;-10.32;90.72;100868.25;5051166;28;20040;-73
2022/01/08 07:40:12;;;;;;;7.15;3.30;;;;;;;-10.29;90.19;100867.13;5050939;28;20037;-73
2022/01/08 07:42:38;;;;;;;7.78;3.90;;;;;;;-10.23;90.50;100867.41;5050590;28;20114;-73
2022/01/08 07:45:04;;;;;;;6.80;3.38;;;;;;;-10.09;90.77;100866.06;5050655;28;20175;-73
2022/01/08 07:47:30;;;;;;;7.75;3.78;;;;;;;-9.94;90.62;100874.44;5050336;28;20040;-73
2022/01/08 07:49:56;;;;;;;8.80;4.10;;;;;;;-9.83;90.67;100874.28;5045179;28;20041;-73
2022/01/08 07:52:21;;;;;;;6.47;3.80;;;;;;;-9.74;90.61;100884.03;5050145;28;20056;-73
2022/01/08 07:54:47;;;;;;;9.23;3.53;;;;;;;-9.70;90.58;100882.78;5050241;28;20078;-73
2022/01/08 07:57:13;;;;;;;7.22;4.75;;;;;;;-9.61;90.59;100889.03;5065835;28;20068;-73
2022/01/08 07:59:38;;;;;;;7.13;3.50;;;;;;;-9.55;90.31;100886.59;5050493;28;20495;-73
2022/01/08 08:02:04;;;;;;;8.18;4.85;;;;;;;-9.48;90.90;100895.69;5060236;28;20043;-73
2022/01/08 08:04:29;;;;;;;7.47;4.50;;;;;;;-9.39;90.14;100877.19;5050918;28;20048;-74
2022/01/08 08:06:55;;;;;;;7.10;4.22;;;;;;;-9.31;90.47;100878.13;5035352;28;20043;-74
2022/01/08 08:09:21;;;;;;;11.13;4.90;;;;;;;-9.23;90.67;100875.56;5032734;28;20036;-73
2022/01/08 08:11:46;;;;;;;5.57;3.67;;;;;;;-9.09;90.96;100881.38;5050445;28;20139;-73
2022/01/08 08:14:12;;;;;;;8.82;4.60;;;;;;;-8.94;90.19;100874.59;5050517;28;20139;-73
2022/01/08 08:16:37;;;;;;;7.95;4.35;;;;;;;-8.82;89.84;100874.22;5050066;28;20037;-73
2022/01/08 08:19:03;;;;;;;6.68;4.07;;;;;;;-8.63;90.21;100878.59;5032197;28;20084;-73
2022/01/08 08:21:29;;;;;;;8.13;4.65;;;;;;;-8.36;90.04;100871.50;5059942;28;20795;-73
2022/01/08 08:23:54;;;;;;;9.98;4.88;;;;;;;-8.01;89.76;100873.25;5064856;28;20530;-73
2022/01/08 08:26:20;;;;;;;8.05;4.22;;;;;;;-7.74;89.35;100870.44;5049795;28;20531;-73
2022/01/08 08:28:45;;;;;;;11.10;4.57;;;;;;;-7.37;88.07;100866.66;5063698;28;20037;-73
2022/01/08 08:31:11;;;;;;;9.23;4.68;;;;;;;-7.05;88.42;100866.78;5049983;28;20522;-73
2022/01/08 08:33:38;;;;;;;9.90;4.43;;;;;;;-6.80;87.83;100877.53;5050867;28;20094;-74
2022/01/08 08:36:04;;;;;;;8.95;4.38;;;;;;;-6.58;88.63;100884.94;5050225;28;20779;-73
2022/01/08 08:38:30;;;;;;;9.13;4.00;;;;;;;-6.56;87.95;100882.09;5032129;28;20091;-72
2022/01/08 08:40:56;;;;;;;9.32;4.88;;;;;;;-6.70;89.19;100886.22;5037850;28;20091;-72
2022/01/08 08:43:22;;;;;;;8.05;3.92;;;;;;;-6.86;89.54;100884.34;5045199;28;20041;-72
2022/01/08 08:45:47;;;;;;;7.55;3.58;;;;;;;-6.97;89.76;100884.63;5060811;28;20063;-73
2022/01/08 08:48:13;;;;;;;10.20;4.22;;;;;;;-7.09;90.50;100891.28;5035966;28;20419;-72
2022/01/08 08:50:39;;;;;;;7.43;4.47;;;;;;;-7.25;89.88;100886.72;5053980;28;20438;-73
2022/01/08 08:53:05;;;;;;;9.48;4.47;;;;;;;-7.40;90.54;100888.28;5042004;28;20138;-73
2022/01/08 08:55:31;;;;;;;6.90;3.92;;;;;;;-7.51;90.36;100885.88;5063059;28;20041;-73
2022/01/08 08:57:56;;;;;;;8.52;4.32;;;;;;;-7.69;89.44;100892.13;5055980;28;20028;-74
2022/01/08 09:00:22;;;;;;;6.78;4.57;;;;;;;-7.92;89.40;100890.97;5069858;28;20086;-73
2022/01/08 09:02:47;;;;;;;8.57;3.85;;;;;;;-8.01;89.13;100884.72;5054948;28;20036;-73
2022/01/08 09:05:13;;;;;;;9.15;5.25;;;;;;;-8.10;89.35;100888.34;5058789;28;20055;-77
2022/01/08 09:07:39;;;;;;;10.40;4.80;;;;;;;-8.16;89.54;100888.94;5044028;28;20561;-75
2022/01/08 09:10:06;;;;;;;8.63;4.57;;;;;;;-8.22;89.06;100887.72;5052939;28;20095;-72
2022/01/08 09:12:33;;;;;;;9.00;4.38;;;;;;;-8.30;89.48;100885.00;5062760;28;20049;-73
2022/01/08 09:14:58;;;;;;;9.23;3.83;;;;;;;-8.43;88.36;100876.59;5057716;28;20040;-73
2022/01/08 09:17:25;;;;;;;5.55;3.75;;;;;;;-8.47;89.20;100877.91;5060295;28;20082;-72
2022/01/08 09:19:51;;;;;;;6.57;3.70;;;;;;;-8.48;88.77;100872.72;5049701;28;20419;-73
2022/01/08 09:22:17;;;;;;;7.38;3.90;;;;;;;-8.49;89.33;100876.38;5052943;28;20033;-72
2022/01/08 09:24:44;;;;;;;9.32;4.85;;;;;;;-8.49;88.79;100879.03;5035260;28;20036;-73
2022/01/08 09:27:10;;;;;;;8.02;3.67;;;;;;;-8.51;88.66;100876.50;5035215;28;20071;-72
2022/01/08 09:29:35;;;;;;;9.32;5.05;;;;;;;-8.56;88.54;100882.28;5054087;28;20064;-77
2022/01/08 09:32:04;;;;;;;8.07;4.40;;;;;;;-8.59;89.34;100887.09;5051754;28;20647;-77
2022/01/08 09:34:29;;;;;;;5.83;4.00;;;;;;;-8.61;88.84;100878.44;5054151;28;20048;-77
2022/01/08 09:36:55;;;;;;;11.23;4.28;;;;;;;-8.62;88.50;100876.75;5052898;28;20037;-78
2022/01/08 09:39:20;;;;;;;9.27;4.78;;;;;;;-8.60;89.21;100877.44;5035425;28;20135;-75
2022/01/08 09:41:46;;;;;;;6.25;4.22;;;;;;;-8.62;88.73;100880.25;5052494;28;20124;-74
2022/01/08 09:44:12;;;;;;;8.73;4.40;;;;;;;-8.63;88.83;100883.91;5052652;28;20045;-77
2022/01/08 09:46:38;;;;;;;6.93;4.20;;;;;;;-8.64;88.65;100881.41;5052574;28;20036;-80
2022/01/08 09:49:04;;;;;;;7.50;4.25;;;;;;;-8.66;88.37;100888.69;5035749;28;20033;-80
2022/01/08 09:51:29;;;;;;;9.77;4.15;;;;;;;-8.66;88.32;100883.38;5042440;28;20040;-77
2022/01/08 09:53:55;;;;;;;8.43;3.80;;;;;;;-8.67;88.62;100873.72;5032502;28;20128;-81
2022/01/08 09:56:23;;;;;;;6.82;4.05;;;;;;;-8.67;88.46;100874.56;5048933;28;20071;-79
2022/01/08 09:58:48;;;;;;;8.13;4.50;;;;;;;-8.68;88.56;100872.84;5052588;28;20029;-76
2022/01/08 10:01:26;;;;;;;9.32;4.75;;;;;;;-8.66;89.47;100872.72;5050154;28;20040;-76
2022/01/08 10:03:52;;;;;;;8.02;4.28;;;;;;;-8.70;89.29;100874.00;5040950;28;20115;-75
2022/01/08 10:06:23;;;;;;;6.88;4.32;;;;;;;-8.71;88.62;100880.31;5059375;28;20063;-77
2022/01/08 10:08:49;;;;;;;9.88;5.50;;;;;;;-8.72;89.03;100879.47;5056751;28;20142;-77
2022/01/08 10:11:15;;;;;;;8.77;4.72;;;;;;;-8.71;89.40;100886.47;5064751;28;20073;-76
2022/01/08 10:13:42;;;;;;;10.70;5.32;;;;;;;-8.73;89.25;100872.47;5034603;28;20056;-76
2022/01/08 10:18:57;;;;;;;8.52;5.40;;;;;;;-8.74;89.00;100873.47;5061285;28;20082;-78
2022/01/08 10:21:26;;;;;;;11.27;5.00;;;;;;;-8.74;89.08;100870.81;5050917;28;20053;-75
2022/01/08 10:23:58;;;;;;;11.00;5.10;;;;;;;-8.77;89.07;100865.78;5049504;28;20041;-78
2022/01/08 10:26:32;;;;;;;10.35;4.60;;;;;;;-8.78;88.75;100873.94;5040891;28;20330;-78
2022/01/08 10:29:00;;;;;;;9.55;5.55;;;;;;;-8.78;89.60;100868.59;5051545;28;20040;-75
2022/01/08 10:31:25;;;;;;;10.57;5.07;;;;;;;-8.81;89.56;100859.13;5052173;28;20135;-77
2022/01/08 10:33:57;;;;;;;9.85;6.00;;;;;;;-8.85;89.68;100857.72;5035449;28;20136;-76
2022/01/08 10:36:29;;;;;;;16.48;6.10;;;;;;;-8.86;89.70;100864.03;5035979;28;20060;-76
2022/01/08 10:38:56;;;;;;;10.45;6.15;;;;;;;-8.87;88.77;100865.84;5033952;28;20389;-75
2022/01/08 10:41:22;;;;;;;14.18;7.75;;;;;;;-8.91;89.66;100863.66;5060467;28;20037;-77
2022/01/08 10:43:48;;;;;;;17.27;8.65;;;;;;;-8.97;89.31;100875.72;5065902;28;20137;-74
2022/01/08 10:46:17;;;;;;;25.27;12.73;;;;;;;-9.02;89.09;100863.84;5029940;28;20114;-75
2022/01/08 10:48:50;;;;;;;25.85;14.02;;;;;;;-9.07;89.33;100863.47;5042610;28;20068;-78
2022/01/08 10:51:17;;;;;;;24.90;14.40;;;;;;;-9.09;89.32;100870.75;5034315;28;20045;-77
2022/01/08 10:54:09;;;;;;;33.67;15.48;;;;;;;-9.13;89.72;100875.53;5051104;28;20048;-75
2022/01/08 10:56:46;;;;;;;33.13;15.55;;;;;;;-9.16;89.28;100859.88;5023630;28;20076;-74
2022/01/08 10:59:20;;;;;;;31.90;16.13;;;;;;;-9.16;89.14;100865.22;5051376;28;20040;-75
2022/01/08 11:01:58;;;;;;;39.00;18.08;;;;;;;-9.17;88.90;100858.22;5051111;28;20045;-75
2022/01/08 11:04:37;;;;;;;29.65;17.42;;;;;;;-9.20;89.74;100863.81;5048801;28;20033;-75
2022/01/08 11:07:17;;;;;;;32.92;16.65;;;;;;;-9.23;89.10;100864.94;5066039;28;20040;-76
2022/01/08 11:09:45;;;;;;;36.45;15.88;;;;;;;-9.25;89.08;100866.06;5044423;28;20037;-76
2022/01/08 11:12:18;;;;;;;35.42;18.13;;;;;;;-9.29;89.04;100865.53;5050988;28;20048;-82
2022/01/08 11:17:35;;;;;;;38.35;18.75;;;;;;;-9.36;89.27;100858.31;5051876;28;20037;-78
2022/01/08 11:20:05;;;;;;;35.47;16.33;;;;;;;-9.38;89.96;100865.56;5029241;28;20053;-79
2022/01/08 11:22:33;;;;;;;31.08;15.20;;;;;;;-9.42;89.13;100860.56;5065160;28;20036;-80
2022/01/08 11:25:09;;;;;;;34.13;16.20;;;;;;;-9.44;89.05;100859.88;5047888;28;20115;-78
2022/01/08 11:27:54;;;;;;;28.10;15.05;;;;;;;-9.48;89.14;100861.16;5051231;28;20037;-78
2022/01/08 11:30:25;;;;;;;28.65;16.20;;;;;;;-9.53;89.38;100868.72;5047290;28;20047;-80
2022/01/08 11:32:55;;;;;;;35.33;16.02;;;;;;;-9.56;89.65;100868.16;5050701;28;20059;-75
2022/01/08 11:35:22;;;;;;;29.85;14.52;;;;;;;-9.60;88.87;100867.63;5050732;28;20041;-80
2022/01/08 11:37:50;;;;;;;30.92;16.45;;;;;;;-9.63;90.03;100867.91;5051323;28;20037;-79
2022/01/08 11:40:18;;;;;;;32.08;16.80;;;;;;;-9.65;89.00;100867.22;5033794;28;20067;-76
2022/01/08 11:42:44;;;;;;;34.90;15.90;;;;;;;-9.65;89.74;100859.25;5032933;28;20492;-75
2022/01/08 11:45:15;;;;;;;29.33;15.20;;;;;;;-9.68;89.98;100864.88;5045973;28;20040;-77